Fisterra (A Coruña), Galicia

latitud = 42° 55' 29''N | longitud = 009° 17' 29''W
230 metros sobre el nivel del mar | datos mensuales

Fecha, hora, temperatura, viento dirección y velocidad, humedad y presión.

  • 23-04-2018 10:00:00 | 12.00°C | Nordeste |37.00 km/h | 85.00% | 990.90 hPa
  • 23-04-2018 09:00:00 | 11.10°C | Nordeste |37.00 km/h | 87.00% | 990.70 hPa
  • 23-04-2018 08:00:00 | 10.30°C | Nordeste |39.00 km/h | 88.00% | 990.50 hPa
  • 23-04-2018 07:00:00 | 10.40°C | Nordeste |27.00 km/h | 89.00% | 990.30 hPa
  • 23-04-2018 06:00:00 | 10.70°C | Nordeste |37.00 km/h | 89.00% | 989.90 hPa
  • 23-04-2018 05:00:00 | 10.70°C | Nordeste |32.00 km/h | 88.00% | 990.30 hPa
  • 23-04-2018 04:00:00 | 10.70°C | Nordeste |43.00 km/h | 88.00% | 990.10 hPa
  • 23-04-2018 03:00:00 | 10.70°C | Nordeste |46.00 km/h | 87.00% | 990.10 hPa
  • 23-04-2018 02:00:00 | 10.70°C | Nordeste |42.00 km/h | 87.00% | 990.30 hPa
  • 23-04-2018 01:00:00 | 10.50°C | Nordeste |39.00 km/h | 88.00% | 990.30 hPa
  • 23-04-2018 00:00:00 | 10.60°C | Nordeste |39.00 km/h | 87.00% | 990.50 hPa
  • 22-04-2018 23:00:00 | 10.80°C | Nordeste |39.00 km/h | 85.00% | 990.20 hPa
  • 22-04-2018 22:00:00 | 10.70°C | Nordeste |36.00 km/h | 85.00% | 989.40 hPa
  • 22-04-2018 21:00:00 | 11.50°C | Nordeste |37.00 km/h | 82.00% | 988.60 hPa
  • 22-04-2018 20:00:00 | 13.00°C | Nordeste |36.00 km/h | 76.00% | 988.30 hPa
  • 22-04-2018 19:00:00 | 12.90°C | Nordeste |37.00 km/h | 85.00% | 988.00 hPa
  • 22-04-2018 18:00:00 | 13.30°C | Nordeste |31.00 km/h | 84.00% | 987.90 hPa
  • 22-04-2018 17:00:00 | 12.60°C | Norte |33.00 km/h | 87.00% | 988.50 hPa
  • 22-04-2018 16:00:00 | 12.50°C | Norte |26.00 km/h | 89.00% | 988.90 hPa
  • 22-04-2018 15:00:00 | 12.80°C | Norte |26.00 km/h | 90.00% | 988.80 hPa
  • 22-04-2018 14:00:00 | 13.00°C | Norte |22.00 km/h | 91.00% | 989.00 hPa
  • 22-04-2018 13:00:00 | 12.50°C | Norte |24.00 km/h | 92.00% | 989.20 hPa
  • 22-04-2018 12:00:00 | 12.00°C | Norte |19.00 km/h | 93.00% | 989.30 hPa
  • 22-04-2018 11:00:00 | 12.10°C | Norte |12.00 km/h | 94.00% | 989.30 hPa